Terminal Aerodrome Forecast
Issued by NWS Mt. Holly, NJ

Home | Current Version | Previous Version | Text Only | Print | Product List | Glossary On
Versions: 1 2 3 4 5 6 7 8 9 10 11 12 13 14 15
000
FTUS41 KPHI 260555
TAFABE
TAF
KABE 260555Z 2606/2706 05012G20KT P6SM -SHRA OVC010
     FM260700 05011KT 5SM BR VCSH OVC009
     FM261500 03006KT P6SM OVC010
     FM262000 02005KT P6SM BKN020
     FM270400 00000KT P6SM BKN010=

USA.gov is the U.S. government's official web portal to all federal, state and local government web resources and services.